Wednesday, October 18, 2017, 6:01 PM EDT
Back to Local

KFWN, Sussex Airport

Location: Sussex, NJ, United States Lat: 41.2
Local Time: 6:01 PM EDT (22:01 GMT) Lon: -74.633
Time Zone: US/Eastern Elev: 419 ft

Show me the last for .
Show Decoded

2017-10-18 16:53 METAR KFWN 182053Z AUTO 21005KT 10SM CLR 22/09 A3024 RMK AO2 SLP239 T02170089
                 56012 =
2017-10-18 15:53 METAR KFWN 181953Z AUTO 00000KT 10SM CLR 22/09 A3025 RMK AO2 SLP243 T02170089 =
2017-10-18 14:53 METAR KFWN 181853Z AUTO 21005KT 10SM CLR 22/08 A3026 RMK AO2 SLP247 T02170083 =
2017-10-18 13:53 METAR KFWN 181753Z AUTO 18005KT 10SM CLR 21/09 A3027 RMK AO2 SLP252 T02110089
                 10211 20028 58019 =
2017-10-18 12:53 METAR KFWN 181653Z AUTO 13003KT 10SM CLR 19/09 A3031 RMK AO2 SLP263 T01940089 =
2017-10-18 11:53 METAR KFWN 181553Z AUTO 15004KT 10SM CLR 17/09 A3033 RMK AO2 SLP271 T01720089 =
2017-10-18 10:53 METAR KFWN 181453Z AUTO VRB03KT 10SM CLR 13/06 A3033 RMK AO2 SLP272 T01330061
                 50002 =
2017-10-18 09:53 METAR KFWN 181353Z AUTO VRB04KT 10SM CLR 10/06 A3033 RMK AO2 SLP273 T01000061 =
2017-10-18 08:53 METAR KFWN 181253Z AUTO 00000KT 10SM CLR 06/05 A3033 RMK AO2 SLP274 T00610050 =
2017-10-18 07:53 METAR KFWN 181153Z AUTO 24003KT 10SM CLR 03/02 A3032 RMK AO2 SLP270 T00280022
                 10033 20017 51014 =
2017-10-18 06:53 METAR KFWN 181053Z AUTO 00000KT 10SM CLR 02/02 A3031 RMK AO2 SLP267 T00220017 =
2017-10-18 05:53 METAR KFWN 180953Z AUTO 00000KT 10SM CLR 02/01 A3029 RMK AO2 SLP260 T00220011 =
2017-10-18 04:53 METAR KFWN 180853Z AUTO 00000KT 10SM CLR 02/02 A3028 RMK AO2 SLP255 T00220022
                 55001 =
2017-10-18 03:53 METAR KFWN 180753Z AUTO 24003KT 10SM CLR 03/02 A3027 RMK AO2 SLP250 T00280022 =
2017-10-18 02:53 METAR KFWN 180653Z AUTO 24003KT 10SM CLR 03/03 A3027 RMK AO2 SLP252 T00330028 =
2017-10-18 01:53 METAR KFWN 180553Z AUTO 00000KT 10SM CLR 03/03 A3028 RMK AO2 SLP256 T00330028
                 10078 20033 50000 =
2017-10-18 00:53 METAR KFWN 180453Z AUTO 00000KT 10SM CLR 03/03 A3029 RMK AO2 SLP257 T00330028
                 401561011 =
2017-10-17 23:53 METAR KFWN 180353Z AUTO 00000KT 10SM CLR 04/03 A3028 RMK AO2 SLP257 T00390028 =
2017-10-17 22:53 METAR KFWN 180253Z AUTO 00000KT 10SM CLR 04/03 A3028 RMK AO2 SLP257 T00440028
                 53007 =
2017-10-17 21:53 METAR KFWN 180153Z AUTO 24003KT 10SM CLR 05/03 A3028 RMK AO2 SLP255 T00500033 =
2017-10-17 20:53 METAR KFWN 180053Z AUTO 00000KT 10SM CLR 06/04 A3026 RMK AO2 SLP251 T00560039 =
2017-10-17 19:53 METAR KFWN 172353Z AUTO 00000KT 10SM CLR 07/03 A3026 RMK AO2 SLP250 T00670033
                 10156 20067 53010 =
2017-10-17 18:53 METAR KFWN 172253Z AUTO 00000KT 10SM CLR 10/03 A3025 RMK AO2 SLP245 T01000033 =

Support USWX by starting your Amazon purchase here.